This is the latest recevied weather packets stored in our database for station/object WD9EKA. If no packets are shown the sender has not sent any weather packets the latest 1 day(s).
| Time | Temp. | Humidity | Pressure | Rain* | Wind** | Luminosity | Snow |
|---|---|---|---|---|---|---|---|
| 1836274609 | 19.44° C | 92% | 1011.9 hPa | 0 mm | 0 m/s | - | - |
| 1836274498 | 18.89° C | 91% | 1011.9 hPa | 0 mm | 0 m/s | - | - |
| 1836274288 | 19.44° C | 92% | 1012 hPa | 0 mm | 0 m/s | - | - |
| 1836274179 | 19.44° C | 91% | 1011.8 hPa | 0 mm | 0 m/s | - | - |
| 1836273968 | 19.44° C | 92% | 1012.1 hPa | 0 mm | 0 m/s | - | - |
| 1778053773 | 7.22° C | 99% | 1006.4 hPa | 0 mm | 0 m/s | - | - |
| 1778053413 | 6.67° C | 99% | 1006 hPa | 0 mm | 0 m/s | - | - |
| 1778053053 | 6.67° C | 99% | 1005.7 hPa | 0 mm | 0 m/s | - | - |
| 1778052693 | 7.22° C | 99% | 1005.7 hPa | 0 mm | 0 m/s | - | - |
| 1778052393 | 6.67° C | 99% | 1005.6 hPa | 0 mm | 0 m/s | - | - |
| 1778052033 | 7.22° C | 99% | 1006.1 hPa | 0 mm | 0 m/s | - | - |
| 1778051673 | 7.22° C | 99% | 1006.2 hPa | 0 mm | 0 m/s | - | - |
| 1778051313 | 7.22° C | 99% | 1006.5 hPa | 0 mm | 0 m/s | - | - |
| 1778050953 | 6.67° C | 99% | 1006.1 hPa | 0 mm | 0 m/s | - | - |
| 1778050593 | 7.22° C | 99% | 1005.9 hPa | 0 mm | 0 m/s | - | - |
| 1778049873 | 6.67° C | 99% | 1006.1 hPa | 0 mm | 0 m/s | - | - |
| 1778049513 | 6.67° C | 99% | 1006 hPa | 0 mm | 0 m/s | - | - |
| 1778049153 | 6.67° C | 99% | 1006 hPa | 0 mm | 0 m/s | - | - |
| 1778048793 | 6.67° C | 99% | 1006.1 hPa | 0 mm | 0 m/s | - | - |
| 1778048484 | 6.67° C | 99% | 1006.1 hPa | 0 mm | 0 m/s | - | - |
| 1778048165 | 6.67° C | 99% | 1006.1 hPa | 0 mm | 0 m/s | - | - |
| 1778047844 | 6.67° C | 99% | 1005.9 hPa | 0 mm | 0 m/s | - | - |
| 1778047534 | 6.67° C | 99% | 1006 hPa | 0 mm | 0 m/s | - | - |
| 1778047174 | 6.67° C | 99% | 1006.7 hPa | 0 mm | 0 m/s | - | - |
| 1778046454 | 6.67° C | 99% | 1006.4 hPa | 0 mm | 0 m/s | - | - |
* Rain latest hour (hover to see other rain measurements)
** Current wind speed in m/s (hover to see current wind gust speed)